createdAt,value
2022-11-02T00:00:32.256Z,960.4675293
2022-11-02T00:01:33.065Z,960.4603271
2022-11-02T00:02:33.797Z,960.4668579
2022-11-02T00:03:34.249Z,960.449585
2022-11-02T00:04:34.822Z,960.4604492
2022-11-02T00:05:35.532Z,960.4408569
2022-11-02T00:06:37.092Z,960.463623
2022-11-02T00:07:37.660Z,960.461853
2022-11-02T00:08:38.289Z,960.4935303
2022-11-02T00:09:38.977Z,960.4804688
2022-11-02T00:10:39.715Z,960.4787598
2022-11-02T00:11:40.729Z,960.5097046
2022-11-02T00:12:41.349Z,960.5032959
2022-11-02T00:13:41.880Z,960.5324707
2022-11-02T00:14:42.435Z,960.524353
2022-11-02T00:15:43.625Z,960.5488892
2022-11-02T00:16:45.167Z,960.5189209
2022-11-02T00:17:45.805Z,960.5238037
2022-11-02T00:18:46.260Z,960.5482788
2022-11-02T00:19:46.880Z,960.5189819
2022-11-02T00:20:47.591Z,960.5368652
2022-11-02T00:21:48.886Z,960.492981
2022-11-02T00:23:20.809Z,960.5141602
2022-11-02T00:24:21.298Z,960.5761108
2022-11-02T00:25:21.797Z,960.5629883
2022-11-02T00:26:23.058Z,960.5750122
2022-11-02T00:27:23.701Z,960.5651855
2022-11-02T00:28:24.397Z,960.5498657
2022-11-02T00:29:27.791Z,960.5971069
2022-11-02T00:30:25.797Z,960.623291
2022-11-02T00:31:26.474Z,960.5939331
2022-11-02T00:32:27.610Z,960.6134644
2022-11-02T00:33:28.262Z,960.6242065
2022-11-02T00:34:28.838Z,960.6290894
2022-11-02T00:35:29.491Z,960.6193848
2022-11-02T00:36:31.083Z,960.6525269
2022-11-02T00:38:32.935Z,960.6623535
2022-11-02T00:39:33.690Z,960.6752319
2022-11-02T00:40:34.139Z,960.6811523
2022-11-02T00:41:34.583Z,960.7332764
2022-11-02T00:42:35.319Z,960.7332764
2022-11-02T00:43:35.985Z,960.7902832
2022-11-02T00:44:36.612Z,960.7126465
2022-11-02T00:45:37.144Z,960.7442017
2022-11-02T00:46:38.501Z,960.7121582
2022-11-02T00:47:39.183Z,960.7382813
2022-11-02T00:48:39.832Z,960.7784424
2022-11-02T00:49:40.513Z,960.762207
2022-11-02T00:50:41.022Z,960.7474976
2022-11-02T00:51:41.690Z,960.7784424
2022-11-02T00:52:42.273Z,960.7334595
2022-11-02T00:53:42.927Z,960.7854614
2022-11-02T00:54:44.699Z,960.8132324
2022-11-02T00:55:45.337Z,960.8468628
2022-11-02T00:56:46.501Z,960.826355
2022-11-02T00:57:47.051Z,960.8192139
2022-11-02T00:58:48.169Z,960.7650146
2022-11-02T01:00:19.239Z,960.8407593
2022-11-02T01:01:20.807Z,960.8815918
2022-11-02T01:02:21.387Z,960.9477539
2022-11-02T01:03:22.709Z,960.928894
2022-11-02T01:04:23.602Z,960.9238892
2022-11-02T01:05:24.279Z,960.9786987
2022-11-02T01:06:25.660Z,960.9428711
2022-11-02T01:07:26.376Z,960.9821167
2022-11-02T01:08:27.301Z,960.9434204
2022-11-02T01:09:27.954Z,960.9207764
2022-11-02T01:10:28.609Z,960.9364014
2022-11-02T01:11:29.198Z,960.8599854
2022-11-02T01:12:29.779Z,960.8334351
2022-11-02T01:13:30.419Z,960.8286133
2022-11-02T01:14:31.026Z,960.8290405
2022-11-02T01:15:31.861Z,960.7980957
2022-11-02T01:16:33.174Z,960.7801514
2022-11-02T01:17:33.662Z,960.7487793
2022-11-02T01:18:34.325Z,960.7681274
2022-11-02T01:19:34.938Z,960.7747803
2022-11-02T01:20:35.872Z,960.8095093
2022-11-02T01:21:36.514Z,960.7998657
2022-11-02T01:22:37.021Z,960.8323364
2022-11-02T01:23:37.554Z,960.8861084
2022-11-02T01:24:38.094Z,960.8731079
2022-11-02T01:25:38.914Z,960.8290405
2022-11-02T01:26:40.379Z,960.8723145
2022-11-02T01:27:40.845Z,960.8886719
2022-11-02T01:28:42.409Z,960.9067383
2022-11-02T01:29:42.964Z,960.9056396
2022-11-02T01:30:43.724Z,960.939209
2022-11-02T01:31:44.547Z,960.9272461
2022-11-02T01:32:45.228Z,960.8726807
2022-11-02T01:33:45.842Z,960.8584595
2022-11-02T01:34:47.132Z,960.8170166
2022-11-02T01:36:19.309Z,960.8883057
2022-11-02T01:37:19.879Z,960.8052368
2022-11-02T01:38:20.738Z,960.8052979
2022-11-02T01:39:21.328Z,960.7302856
2022-11-02T01:40:21.944Z,960.680481
2022-11-02T01:41:22.682Z,960.7449341
2022-11-02T01:42:23.447Z,960.7781372
2022-11-02T01:43:24.113Z,960.8459473
2022-11-02T01:44:24.668Z,960.8654785
2022-11-02T01:45:25.190Z,960.8796997
2022-11-02T01:46:26.774Z,960.852356
2022-11-02T01:47:27.441Z,960.809082
2022-11-02T01:48:28.186Z,960.8247681
2022-11-02T01:49:28.783Z,960.8036499
2022-11-02T01:50:29.314Z,960.7948608
2022-11-02T01:51:30.022Z,960.8144531
2022-11-02T01:52:30.803Z,960.7857666
2022-11-02T01:53:31.420Z,960.8209229
2022-11-02T01:54:32.042Z,960.7965698
2022-11-02T01:55:33.520Z,960.80896
2022-11-02T01:56:34.658Z,960.8113403
2022-11-02T01:57:35.573Z,960.7650146
2022-11-02T01:58:36.263Z,960.7217407
2022-11-02T01:59:36.917Z,960.7510986
2022-11-02T02:00:37.380Z,960.756897
2022-11-02T02:01:37.957Z,960.7520142
2022-11-02T02:02:38.774Z,960.7601318
2022-11-02T02:03:39.370Z,960.7388916
2022-11-02T02:04:40.163Z,960.723877
2022-11-02T02:05:40.714Z,960.7520142
2022-11-02T02:06:42.119Z,960.7357788
2022-11-02T02:07:42.650Z,960.7711792
2022-11-02T02:08:43.378Z,960.7564697
2022-11-02T02:09:48.608Z,960.7445068
2022-11-02T02:10:44.581Z,960.7422485
2022-11-02T02:11:45.147Z,960.7171631
2022-11-02T02:12:45.668Z,960.7172852
2022-11-02T02:13:46.388Z,960.6694336
2022-11-02T02:14:47.626Z,960.6921387
2022-11-02T02:16:18.390Z,960.6498413
2022-11-02T02:17:19.919Z,960.6477051
2022-11-02T02:18:20.825Z,960.6508789
2022-11-02T02:19:21.553Z,960.6571655
2022-11-02T02:20:23.253Z,960.6878052
2022-11-02T02:21:23.865Z,960.6785278
2022-11-02T02:22:24.414Z,960.7387695
2022-11-02T02:23:24.946Z,960.7006226
2022-11-02T02:24:26.635Z,960.7658081
2022-11-02T02:25:27.339Z,960.750061
2022-11-02T02:26:28.026Z,960.7559204
2022-11-02T02:27:29.430Z,960.7755737
2022-11-02T02:28:29.914Z,960.7566528
2022-11-02T02:29:30.611Z,960.7446289
2022-11-02T02:30:31.303Z,960.767334
2022-11-02T02:31:31.988Z,960.7387695
2022-11-02T02:32:32.572Z,960.7567139
2022-11-02T02:33:33.142Z,960.7267456
2022-11-02T02:34:33.779Z,960.718689
2022-11-02T02:35:34.516Z,960.6829834
2022-11-02T02:36:35.308Z,960.7067871
2022-11-02T02:37:36.562Z,960.6882324
2022-11-02T02:38:37.111Z,960.7051392
2022-11-02T02:39:37.652Z,960.6757813
2022-11-02T02:40:38.383Z,960.7061157
2022-11-02T02:41:39.070Z,960.7467041
2022-11-02T02:42:39.796Z,960.7006836
2022-11-02T02:43:41.116Z,960.7029419
2022-11-02T02:44:41.592Z,960.6925049
2022-11-02T02:45:42.375Z,960.7028198
2022-11-02T02:46:43.263Z,960.6709595
2022-11-02T02:47:44.480Z,960.6404419
2022-11-02T02:48:45.060Z,960.6507568
2022-11-02T02:49:45.564Z,960.6593628
2022-11-02T02:50:46.127Z,960.6495361
2022-11-02T02:51:47.273Z,960.6723633
2022-11-02T02:53:18.335Z,960.7028198
2022-11-02T02:54:18.905Z,960.7363281
2022-11-02T02:55:20.139Z,960.7423706
2022-11-02T02:56:21.057Z,960.7548218
2022-11-02T02:57:22.540Z,960.7140503
2022-11-02T02:58:23.278Z,960.6565552
2022-11-02T02:59:23.814Z,960.6468506
2022-11-02T03:00:24.331Z,960.6409302
2022-11-02T03:01:25.109Z,960.6120605
2022-11-02T03:02:25.799Z,960.5236206
2022-11-02T03:03:26.385Z,960.5296631
2022-11-02T03:04:26.991Z,960.5704956
2022-11-02T03:05:27.468Z,960.5617065
2022-11-02T03:06:28.033Z,960.5861206
2022-11-02T03:07:32.966Z,960.6203003
2022-11-02T03:08:30.297Z,960.664856
2022-11-02T03:09:30.826Z,960.6974487
2022-11-02T03:10:31.309Z,960.7217407
2022-11-02T03:11:31.883Z,960.7265625
2022-11-02T03:12:32.537Z,960.7012329
2022-11-02T03:13:33.176Z,960.6453247
2022-11-02T03:14:33.791Z,960.6681519
2022-11-02T03:15:34.359Z,960.6691895
2022-11-02T03:16:34.909Z,960.6652832
2022-11-02T03:17:36.554Z,960.671936
2022-11-02T03:18:37.198Z,960.6746826
2022-11-02T03:19:37.884Z,960.7126465
2022-11-02T03:20:38.484Z,960.6951294
2022-11-02T03:21:39.030Z,960.6268921
2022-11-02T03:22:40.091Z,960.5905762
2022-11-02T03:23:40.878Z,960.5825195
2022-11-02T03:24:41.557Z,960.5965576
2022-11-02T03:25:42.186Z,960.6263428
2022-11-02T03:26:42.711Z,960.6443481
2022-11-02T03:27:43.947Z,960.6818848
2022-11-02T03:28:44.682Z,960.7023926
2022-11-02T03:29:45.266Z,960.7583008
2022-11-02T03:30:45.910Z,960.8499756
2022-11-02T03:32:17.916Z,960.8451538
2022-11-02T03:33:18.388Z,960.8370361
2022-11-02T03:34:18.891Z,960.8745117
2022-11-02T03:35:19.383Z,960.8876343
2022-11-02T03:36:19.904Z,960.8381348
2022-11-02T03:37:21.662Z,960.8495483
2022-11-02T03:38:22.153Z,960.8554688
2022-11-02T03:39:22.795Z,960.842041
2022-11-02T03:40:23.332Z,960.8007813
2022-11-02T03:41:23.808Z,960.7650146
2022-11-02T03:42:24.317Z,960.7855225
2022-11-02T03:43:24.790Z,960.8018188
2022-11-02T03:44:25.296Z,960.8278809
2022-11-02T03:45:25.784Z,960.8468628
2022-11-02T03:46:26.283Z,960.7931519
2022-11-02T03:47:27.677Z,960.8137207
2022-11-02T03:48:28.140Z,960.7779541
2022-11-02T03:49:28.660Z,960.8139038
2022-11-02T03:50:29.227Z,960.7775269
2022-11-02T03:51:29.728Z,960.7751465
2022-11-02T03:52:30.271Z,960.8577881
2022-11-02T03:53:30.774Z,960.8979492
2022-11-02T03:54:31.276Z,960.9528198
2022-11-02T03:55:32.626Z,960.9174805
2022-11-02T03:56:33.136Z,960.9370117
2022-11-02T03:57:34.178Z,960.9592285
2022-11-02T03:58:34.611Z,960.9658813
2022-11-02T03:59:35.208Z,960.9332886
2022-11-02T04:00:35.764Z,960.8772583
2022-11-02T04:01:36.326Z,960.8404541
2022-11-02T04:02:36.849Z,960.798584
2022-11-02T04:03:37.222Z,960.8189087
2022-11-02T04:04:37.752Z,960.8383789
2022-11-02T04:05:38.256Z,960.788269
2022-11-02T04:06:38.760Z,960.7849731
2022-11-02T04:07:40.163Z,960.7672119
2022-11-02T04:08:40.683Z,960.7877197
2022-11-02T04:09:41.215Z,960.7932129
2022-11-02T04:10:41.790Z,960.8496094
2022-11-02T04:11:42.327Z,960.850769
2022-11-02T04:12:42.845Z,960.9396973
2022-11-02T04:13:43.306Z,960.8637695
2022-11-02T04:14:43.801Z,960.8762207
2022-11-02T04:15:44.304Z,960.8735962
2022-11-02T04:16:44.829Z,960.7987671
2022-11-02T04:17:46.165Z,960.8660889
2022-11-02T04:19:16.830Z,960.888855
2022-11-02T04:20:17.265Z,960.887207
2022-11-02T04:21:17.758Z,960.8920288
2022-11-02T04:22:18.297Z,960.8742065
2022-11-02T04:23:18.836Z,960.8473511
2022-11-02T04:24:19.392Z,960.8323364
2022-11-02T04:25:19.969Z,960.8218994
2022-11-02T04:26:21.371Z,960.8231201
2022-11-02T04:27:21.876Z,960.8279419
2022-11-02T04:28:22.949Z,960.8322144
2022-11-02T04:29:23.415Z,960.8464355
2022-11-02T04:30:23.938Z,960.817627
2022-11-02T04:31:24.420Z,960.8088989
2022-11-02T04:32:25.936Z,960.7817383
2022-11-02T04:33:26.530Z,960.789917
2022-11-02T04:34:27.091Z,960.815918
2022-11-02T04:35:27.627Z,960.7963257
2022-11-02T04:36:28.172Z,960.8398438
2022-11-02T04:38:30.179Z,960.960144
2022-11-02T04:39:30.875Z,961.0025024
2022-11-02T04:40:31.396Z,960.9906006
2022-11-02T04:41:31.936Z,961.0020142
2022-11-02T04:42:32.503Z,961.0063477
2022-11-02T04:43:33.085Z,961.0200195
2022-11-02T04:44:33.586Z,961.0568237
2022-11-02T04:45:34.120Z,961.0818481
2022-11-02T04:46:34.655Z,961.1501465
2022-11-02T04:47:36.162Z,961.1729736
2022-11-02T04:48:36.719Z,961.217041
2022-11-02T04:49:37.218Z,961.2521973
2022-11-02T04:50:37.750Z,961.2472534
2022-11-02T04:51:38.297Z,961.2896118
2022-11-02T04:52:38.859Z,961.2543945
2022-11-02T04:53:39.472Z,961.267395
2022-11-02T04:54:39.959Z,961.3206177
2022-11-02T04:55:40.500Z,961.3309326
2022-11-02T04:56:41.040Z,961.3222046
2022-11-02T04:58:42.058Z,961.2521973
2022-11-02T04:59:43.376Z,961.2043457
2022-11-02T05:00:43.882Z,961.1920166
2022-11-02T05:01:44.550Z,961.1848145
2022-11-02T05:02:44.977Z,961.2174072
2022-11-02T05:04:16.029Z,961.206543
2022-11-02T05:05:16.507Z,961.2402954
2022-11-02T05:06:17.032Z,961.2664185
2022-11-02T05:07:17.515Z,961.3206177
2022-11-02T05:08:18.893Z,961.3345337
2022-11-02T05:09:19.424Z,961.3970337
2022-11-02T05:10:19.884Z,961.4165649
2022-11-02T05:11:21.424Z,961.4106445
2022-11-02T05:12:26.598Z,961.3894653
2022-11-02T05:13:22.459Z,961.3965454
2022-11-02T05:14:22.985Z,961.4074097
2022-11-02T05:15:23.385Z,961.4241333
2022-11-02T05:16:23.863Z,961.4362793
2022-11-02T05:17:24.348Z,961.4389038
2022-11-02T05:18:25.347Z,961.4545288
2022-11-02T05:19:25.870Z,961.3943481
2022-11-02T05:20:26.284Z,961.3904419
2022-11-02T05:21:26.765Z,961.3704834
2022-11-02T05:22:27.283Z,961.3858643
2022-11-02T05:23:27.802Z,961.4155273
2022-11-02T05:24:28.395Z,961.4107056
2022-11-02T05:25:28.892Z,961.3467407
2022-11-02T05:26:29.406Z,961.3200073
2022-11-02T05:27:29.973Z,961.2859497
2022-11-02T05:28:31.334Z,961.2675171
2022-11-02T05:29:31.862Z,961.2620239
2022-11-02T05:30:32.321Z,961.3451538
2022-11-02T05:31:32.881Z,961.3886108
2022-11-02T05:32:33.375Z,961.3782959
2022-11-02T05:33:33.894Z,961.3788452
2022-11-02T05:34:34.513Z,961.3267212
2022-11-02T05:35:34.991Z,961.3480225
2022-11-02T05:36:35.526Z,961.312561
2022-11-02T05:37:36.064Z,961.3099365
2022-11-02T05:38:37.418Z,961.3060913
2022-11-02T05:39:37.964Z,961.3208008
2022-11-02T05:40:38.426Z,961.350647
2022-11-02T05:41:38.921Z,961.2734375
2022-11-02T05:42:39.442Z,961.2536011
2022-11-02T05:43:39.931Z,961.2495117
2022-11-02T05:44:40.541Z,961.3261108
2022-11-02T05:45:41.206Z,961.2859497
2022-11-02T05:46:41.798Z,961.3214111
2022-11-02T05:47:42.300Z,961.3418579
2022-11-02T05:48:43.420Z,961.3423462
2022-11-02T05:49:43.946Z,961.4031372
2022-11-02T05:50:44.872Z,961.388916
2022-11-02T05:52:15.637Z,961.4129639
2022-11-02T05:53:16.204Z,961.4014282
2022-11-02T05:54:16.692Z,961.4144287
2022-11-02T05:55:17.274Z,961.4274292
2022-11-02T05:56:24.619Z,961.4542236
2022-11-02T05:57:19.120Z,961.4746704
2022-11-02T05:58:20.208Z,961.4932861
2022-11-02T05:59:20.848Z,961.4681396
2022-11-02T06:00:21.363Z,961.4807739
2022-11-02T06:01:21.850Z,961.4676514
2022-11-02T06:02:25.378Z,961.5011597
2022-11-02T06:03:23.435Z,961.501709
2022-11-02T06:04:23.925Z,961.5055542
2022-11-02T06:05:24.483Z,961.5328369
2022-11-02T06:06:24.885Z,961.53479
2022-11-02T06:07:25.371Z,961.5343628
2022-11-02T06:08:26.634Z,961.5652466
2022-11-02T06:09:27.165Z,961.5809326
2022-11-02T06:10:27.769Z,961.571106
2022-11-02T06:11:28.199Z,961.5401611
2022-11-02T06:12:28.725Z,961.5571289
2022-11-02T06:13:29.246Z,961.6134644
2022-11-02T06:14:29.726Z,961.6434326
2022-11-02T06:15:30.271Z,961.6270142
2022-11-02T06:16:30.721Z,961.6846924
2022-11-02T06:17:31.221Z,961.7084351
2022-11-02T06:18:32.635Z,961.7056885
2022-11-02T06:19:33.223Z,961.6374512
2022-11-02T06:20:33.759Z,961.720459
2022-11-02T06:21:34.283Z,961.7872925
2022-11-02T06:22:34.816Z,961.7996826
2022-11-02T06:23:35.315Z,961.8492432
2022-11-02T06:24:35.783Z,961.8371582
2022-11-02T06:25:36.331Z,961.8308105
2022-11-02T06:26:37.403Z,961.8764038
2022-11-02T06:27:40.930Z,961.8708496
2022-11-02T06:28:39.154Z,961.8718872
2022-11-02T06:29:39.658Z,961.880127
2022-11-02T06:30:40.217Z,961.8729858
2022-11-02T06:31:40.713Z,961.8953247
2022-11-02T06:32:41.244Z,961.8649902
2022-11-02T06:33:41.765Z,961.9116211
2022-11-02T06:34:43.124Z,961.9664307
2022-11-02T06:35:43.683Z,962.0144043
2022-11-02T06:37:14.841Z,961.9801636
2022-11-02T06:38:16.128Z,962.0413818
2022-11-02T06:39:16.598Z,962.0587769
2022-11-02T06:40:18.431Z,962.0773315
2022-11-02T06:41:17.699Z,962.1207275
2022-11-02T06:42:18.196Z,962.1135864
2022-11-02T06:43:19.216Z,962.1060791
2022-11-02T06:44:19.233Z,962.118042
2022-11-02T06:45:19.725Z,962.107666
2022-11-02T06:46:20.255Z,962.1531372
2022-11-02T06:47:20.758Z,962.1081543
2022-11-02T06:48:22.141Z,962.1096802
2022-11-02T06:49:22.641Z,962.109314
2022-11-02T06:50:23.234Z,962.1451416
2022-11-02T06:51:23.764Z,962.1369019
2022-11-02T06:52:24.268Z,962.2182617
2022-11-02T06:53:24.795Z,962.220459
2022-11-02T06:54:25.306Z,962.2301636
2022-11-02T06:55:25.827Z,962.2523193
2022-11-02T06:56:26.338Z,962.2697754
2022-11-02T06:57:26.825Z,962.3111572
2022-11-02T06:58:28.153Z,962.3381958
2022-11-02T06:59:28.637Z,962.361084
2022-11-02T07:00:29.334Z,962.3393555
2022-11-02T07:01:29.948Z,962.3762207
2022-11-02T07:02:30.321Z,962.4007568
2022-11-02T07:03:30.952Z,962.3286133
2022-11-02T07:04:31.620Z,962.4053345
2022-11-02T07:05:32.290Z,962.3520508
2022-11-02T07:06:32.912Z,962.3237305
2022-11-02T07:07:33.461Z,962.2977905
2022-11-02T07:08:34.706Z,962.3787231
2022-11-02T07:09:35.434Z,962.2984619
2022-11-02T07:10:36.085Z,962.3517456
2022-11-02T07:11:36.634Z,962.4135742
2022-11-02T07:12:37.128Z,962.395752
2022-11-02T07:13:37.764Z,962.4234619
2022-11-02T07:14:38.519Z,962.4207153
2022-11-02T07:15:39.199Z,962.4625244
2022-11-02T07:16:39.719Z,962.4609985
2022-11-02T07:17:40.158Z,962.4246826
2022-11-02T07:18:41.818Z,962.4371948
2022-11-02T07:19:42.488Z,962.4659424
2022-11-02T07:20:43.187Z,962.4311523
2022-11-02T07:22:14.365Z,962.4547119
2022-11-02T07:23:14.875Z,962.4573364
2022-11-02T07:24:15.361Z,962.5095215
2022-11-02T07:25:16.162Z,962.513916
2022-11-02T07:26:16.771Z,962.5116577
2022-11-02T07:27:17.446Z,962.5268555
2022-11-02T07:28:17.921Z,962.520752
2022-11-02T07:29:19.363Z,962.4915771
2022-11-02T07:30:20.105Z,962.5144043
2022-11-02T07:31:21.072Z,962.4976807
2022-11-02T07:32:21.706Z,962.5563965
2022-11-02T07:33:22.150Z,962.5281372
2022-11-02T07:34:22.649Z,962.5650635
2022-11-02T07:35:23.327Z,962.5960693
2022-11-02T07:36:24.014Z,962.5964966
2022-11-02T07:37:24.728Z,962.6151733
2022-11-02T07:38:25.279Z,962.5982666
2022-11-02T07:39:26.632Z,962.6101074
2022-11-02T07:40:27.392Z,962.6629639
2022-11-02T07:41:28.050Z,962.6721802
2022-11-02T07:42:28.810Z,962.6408081
2022-11-02T07:43:29.316Z,962.647644
2022-11-02T07:44:29.823Z,962.6314087
2022-11-02T07:45:30.340Z,962.6450195
2022-11-02T07:46:31.020Z,962.7162476
2022-11-02T07:47:31.747Z,962.6989746
2022-11-02T07:48:32.395Z,962.6853638
2022-11-02T07:49:33.878Z,962.6782837
2022-11-02T07:50:34.388Z,962.6729126
2022-11-02T07:51:35.109Z,962.7146606
2022-11-02T07:52:35.795Z,962.6779175
2022-11-02T07:53:36.411Z,962.7045288
2022-11-02T07:54:41.997Z,962.7159424
2022-11-02T07:55:37.491Z,962.6984253
2022-11-02T07:56:38.798Z,962.7056274
2022-11-02T07:57:39.596Z,962.7106323
2022-11-02T07:58:40.275Z,962.6904907
2022-11-02T07:59:41.431Z,962.7084961
2022-11-02T08:00:41.939Z,962.697998
2022-11-02T08:01:42.512Z,962.7040405
2022-11-02T08:03:14.927Z,962.7067261
2022-11-02T08:04:15.318Z,962.7203979
2022-11-02T08:05:15.802Z,962.7263794
2022-11-02T08:06:16.337Z,962.7427368
2022-11-02T08:07:17.055Z,962.7340088
2022-11-02T08:08:17.706Z,962.770752
2022-11-02T08:09:19.094Z,962.7634277
2022-11-02T08:10:20.812Z,962.7818604
2022-11-02T08:11:21.306Z,962.8389282
2022-11-02T08:12:21.859Z,962.7775269
2022-11-02T08:13:22.683Z,962.7980957
2022-11-02T08:14:23.390Z,962.8318481
2022-11-02T08:15:24.005Z,962.8032837
2022-11-02T08:16:24.532Z,962.7988281
2022-11-02T08:17:25.102Z,962.8026733
2022-11-02T08:18:25.766Z,962.7842407
2022-11-02T08:19:27.027Z,962.8026733
2022-11-02T08:20:27.801Z,962.7831421
2022-11-02T08:21:28.382Z,962.7679443
2022-11-02T08:22:28.916Z,962.8005981
2022-11-02T08:23:29.576Z,962.8001709
2022-11-02T08:24:30.170Z,962.809082
2022-11-02T08:25:30.868Z,962.7814331
2022-11-02T08:26:31.425Z,962.7548218
2022-11-02T08:27:32.405Z,962.767395
2022-11-02T08:28:32.992Z,962.7717285
2022-11-02T08:29:34.633Z,962.7754517
2022-11-02T08:30:35.286Z,962.7609253
2022-11-02T08:31:35.919Z,962.7564697
2022-11-02T08:32:36.391Z,962.7966919
2022-11-02T08:33:36.899Z,962.8434448
2022-11-02T08:34:37.629Z,962.8004761
2022-11-02T08:35:38.324Z,962.7712402
2022-11-02T08:36:38.906Z,962.7821045
2022-11-02T08:37:39.440Z,962.7605591
2022-11-02T08:38:39.972Z,962.8109131
2022-11-02T08:39:41.531Z,962.7904663
2022-11-02T08:40:42.224Z,962.7779541
2022-11-02T08:42:13.300Z,962.7457886
2022-11-02T08:43:13.769Z,962.7459106
2022-11-02T08:44:14.353Z,962.7480469
2022-11-02T08:45:14.987Z,962.7709351
2022-11-02T08:46:16.787Z,962.7720337
2022-11-02T08:47:16.449Z,962.7112427
2022-11-02T08:48:16.932Z,962.7051392
2022-11-02T08:49:18.191Z,962.6998291
2022-11-02T08:50:18.825Z,962.7237549
2022-11-02T08:51:19.546Z,962.6916504
2022-11-02T08:52:20.204Z,962.7139282
2022-11-02T08:53:20.823Z,962.6813965
2022-11-02T08:54:21.324Z,962.6542358
2022-11-02T08:55:21.942Z,962.6835938
2022-11-02T08:56:22.694Z,962.6824951
2022-11-02T08:57:23.326Z,962.7172852
2022-11-02T08:58:24.565Z,962.7304077
2022-11-02T08:59:25.684Z,962.6791992
2022-11-02T09:00:26.180Z,962.6738281
2022-11-02T09:01:27.002Z,962.6640625
2022-11-02T09:02:27.672Z,962.6715698
2022-11-02T09:03:28.090Z,962.6782837
2022-11-02T09:04:28.610Z,962.6623535
2022-11-02T09:05:29.069Z,962.6482544
2022-11-02T09:06:29.861Z,962.6484375
2022-11-02T09:07:30.515Z,962.6559448
2022-11-02T09:08:31.190Z,962.6716919
2022-11-02T09:09:32.710Z,962.6734619
2022-11-02T09:10:33.196Z,962.6956177
2022-11-02T09:11:33.979Z,962.7015381
2022-11-02T09:12:34.763Z,962.6885986
2022-11-02T09:13:35.511Z,962.7000122
2022-11-02T09:14:35.940Z,962.6782837
2022-11-02T09:15:36.425Z,962.6629028
2022-11-02T09:16:41.179Z,962.670105
2022-11-02T09:17:37.689Z,962.6408081
2022-11-02T09:18:38.347Z,962.6118774
2022-11-02T09:19:39.669Z,962.6688843
2022-11-02T09:20:40.186Z,962.6585693
2022-11-02T09:21:40.785Z,962.6853027
2022-11-02T09:22:41.510Z,962.6428223
2022-11-02T09:24:13.486Z,962.6362305
2022-11-02T09:25:14.040Z,962.6504517
2022-11-02T09:26:14.519Z,962.6210938
2022-11-02T09:27:16.193Z,962.6292114
2022-11-02T09:28:16.902Z,962.6276855
2022-11-02T09:29:17.673Z,962.6359253
2022-11-02T09:30:19.030Z,962.5742798
2022-11-02T09:31:19.531Z,962.5906372
2022-11-02T09:32:20.318Z,962.6020508
2022-11-02T09:33:21.027Z,962.5945435
2022-11-02T09:34:21.645Z,962.553833
2022-11-02T09:35:22.202Z,962.5928345
2022-11-02T09:36:22.686Z,962.5493774
2022-11-02T09:37:23.459Z,962.578125
2022-11-02T09:38:23.913Z,962.5831299
2022-11-02T09:39:26.161Z,962.6043701
2022-11-02T09:40:26.685Z,962.5744019
2022-11-02T09:41:27.093Z,962.5967407
2022-11-02T09:42:27.731Z,962.5943604
2022-11-02T09:43:32.371Z,962.579834
2022-11-02T09:44:28.980Z,962.5857544
2022-11-02T09:45:29.495Z,962.5875244
2022-11-02T09:46:29.947Z,962.5791626
2022-11-02T09:48:31.757Z,962.5427246
2022-11-02T09:49:32.734Z,962.5510254
2022-11-02T09:50:33.280Z,962.5585327
2022-11-02T09:51:33.717Z,962.5667725
2022-11-02T09:52:34.346Z,962.5792847
2022-11-02T09:53:35.040Z,962.6081543
2022-11-02T09:54:35.702Z,962.5944824
2022-11-02T09:55:36.183Z,962.6020508
2022-11-02T09:56:36.614Z,962.6085815
2022-11-02T09:57:37.661Z,962.5639038
2022-11-02T09:58:38.424Z,962.5623169
2022-11-02T09:59:39.710Z,962.5525513
2022-11-02T10:00:40.329Z,962.5739136
2022-11-02T10:01:40.803Z,962.5602417
2022-11-02T10:02:41.262Z,962.5257568
2022-11-02T10:04:13.343Z,962.5148315
2022-11-02T10:05:14.008Z,962.5128174
2022-11-02T10:06:14.501Z,962.5106201
2022-11-02T10:07:15.016Z,962.4866333
2022-11-02T10:08:15.499Z,962.4821777
2022-11-02T10:09:19.489Z,962.4990845
2022-11-02T10:10:21.117Z,962.5354614
2022-11-02T10:11:21.643Z,962.5254517
2022-11-02T10:12:22.099Z,962.5043945
2022-11-02T10:13:22.681Z,962.5097046
2022-11-02T10:14:23.350Z,962.5368042
2022-11-02T10:15:24.285Z,962.5128174
2022-11-02T10:16:25.003Z,962.4866943
2022-11-02T10:17:25.397Z,962.5008545
2022-11-02T10:18:25.882Z,962.4731445
2022-11-02T10:19:30.265Z,962.4703369
2022-11-02T10:20:29.673Z,962.4768677
2022-11-02T10:21:31.005Z,962.4615479
2022-11-02T10:22:31.439Z,962.4230957
2022-11-02T10:23:31.967Z,962.4431152
2022-11-02T10:24:32.976Z,962.447998
2022-11-02T10:25:35.016Z,962.4382324
2022-11-02T10:26:35.300Z,962.460083
2022-11-02T10:27:36.745Z,962.4349365
2022-11-02T10:28:37.173Z,962.4274292
2022-11-02T10:29:37.791Z,962.4078979
2022-11-02T10:30:39.239Z,962.4317017
2022-11-02T10:31:39.851Z,962.4169312
2022-11-02T10:32:40.426Z,962.4332886
2022-11-02T10:33:40.961Z,962.4143677
2022-11-02T10:35:31.609Z,962.3800049
2022-11-02T10:36:19.198Z,962.3643799
2022-11-02T10:37:16.457Z,962.3566895
2022-11-02T10:38:17.039Z,962.3256836
2022-11-02T10:39:17.890Z,962.3485718
2022-11-02T10:40:19.420Z,962.3331909
2022-11-02T10:41:20.109Z,962.3609619
2022-11-02T10:42:21.021Z,962.3273315
2022-11-02T10:43:21.516Z,962.3283081
2022-11-02T10:44:22.063Z,962.3707886
2022-11-02T10:45:22.732Z,962.3724976
2022-11-02T10:46:23.373Z,962.3239136
2022-11-02T10:47:24.097Z,962.2912598
2022-11-02T10:48:24.599Z,962.3016968
2022-11-02T10:49:25.184Z,962.3295288
2022-11-02T10:50:26.618Z,962.2940674
2022-11-02T10:51:27.257Z,962.2564697
2022-11-02T10:52:27.934Z,962.2368774
2022-11-02T10:53:40.613Z,962.168335
2022-11-02T10:54:33.165Z,962.1768799
2022-11-02T10:55:29.564Z,962.1188965
2022-11-02T10:56:30.334Z,962.0800781
2022-11-02T10:57:31.810Z,962.1013184
2022-11-02T10:58:32.367Z,962.0534668
2022-11-02T10:59:32.896Z,962.0452881
2022-11-02T11:00:34.501Z,962.0758057
2022-11-02T11:01:35.277Z,962.0772705
2022-11-02T11:02:36.064Z,962.0635986
2022-11-02T11:03:36.658Z,962.0597534
2022-11-02T11:04:37.954Z,962.0673218
2022-11-02T11:05:38.477Z,962.0690918
2022-11-02T11:06:39.277Z,962.0460205
2022-11-02T11:07:40.019Z,962.0578003
2022-11-02T11:08:41.100Z,962.0209351